createdAt,value
2016-05-28T00:00:00.079Z,21.06
2016-05-28T00:01:00.129Z,21.03
2016-05-28T00:02:00.179Z,21.09
2016-05-28T00:03:00.229Z,21.14
2016-05-28T00:04:00.340Z,21.05
2016-05-28T00:05:00.827Z,21.06
2016-05-28T00:06:00.487Z,21.09
2016-05-28T00:07:00.457Z,20.99
2016-05-28T00:08:00.586Z,21.02
2016-05-28T00:09:00.557Z,21.14
2016-05-28T00:10:00.606Z,21.09
2016-05-28T00:11:00.641Z,21.12
2016-05-28T00:12:00.706Z,21.11
2016-05-28T00:13:00.818Z,21.12
2016-05-28T00:14:00.837Z,21.14
2016-05-28T00:15:00.901Z,21.09
2016-05-28T00:16:00.904Z,21.07
2016-05-28T00:17:01.000Z,21.07
2016-05-28T00:18:01.050Z,21.09
2016-05-28T00:19:01.068Z,21.11
2016-05-28T00:20:01.821Z,21.11
2016-05-28T00:21:01.230Z,21.07
2016-05-28T00:22:01.233Z,21.02
2016-05-28T00:23:01.408Z,21.03
2016-05-28T00:24:01.395Z,20.99
2016-05-28T00:25:01.428Z,21.14
2016-05-28T00:26:01.290Z,21.06
2016-05-28T00:27:01.387Z,21.09
2016-05-28T00:28:01.608Z,21.09
2016-05-28T00:29:01.674Z,21.09
2016-05-28T00:30:01.536Z,21.03
2016-05-28T00:31:01.741Z,21.05
2016-05-28T00:32:01.775Z,21.09
2016-05-28T00:33:01.825Z,21.14
2016-05-28T00:34:01.858Z,21.12
2016-05-28T00:35:01.940Z,21.11
2016-05-28T00:36:01.958Z,21.09
2016-05-28T00:37:01.992Z,21.02
2016-05-28T00:38:01.916Z,21.05
2016-05-28T00:39:02.107Z,21.06
2016-05-28T00:40:02.171Z,21.14
2016-05-28T00:41:02.252Z,21.09
2016-05-28T00:42:02.287Z,21.11
2016-05-28T00:43:02.227Z,21.09
2016-05-28T00:44:02.385Z,21.09
2016-05-28T00:45:02.326Z,21.03
2016-05-28T00:46:02.563Z,21.09
2016-05-28T00:47:02.598Z,21.05
2016-05-28T00:48:02.646Z,21.09
2016-05-28T00:49:02.712Z,21.12
2016-05-28T00:50:02.589Z,21.09
2016-05-28T00:51:02.733Z,21.06
2016-05-28T00:52:02.798Z,21.11
2016-05-28T00:53:02.691Z,21.02
2016-05-28T00:54:02.912Z,21.14
2016-05-28T00:55:02.962Z,21.07
2016-05-28T00:56:02.996Z,21.05
2016-05-28T00:57:03.093Z,21.09
2016-05-28T00:58:02.939Z,21.05
2016-05-28T00:59:03.144Z,21.12
2016-05-28T01:00:03.258Z,21.06
2016-05-28T01:01:03.322Z,21.09
2016-05-28T01:02:03.402Z,21.09
2016-05-28T01:03:03.327Z,21.06
2016-05-28T01:04:03.518Z,21.12
2016-05-28T01:05:04.021Z,21.09
2016-05-28T01:06:03.616Z,21.09
2016-05-28T01:07:03.635Z,21.15
2016-05-28T01:08:03.685Z,21.11
2016-05-28T01:09:03.813Z,21.06
2016-05-28T01:10:03.675Z,21.07
2016-05-28T01:11:03.817Z,21.11
2016-05-28T01:12:03.914Z,21.14
2016-05-28T01:13:03.870Z,21.12
2016-05-28T01:14:03.951Z,21.15
2016-05-28T01:15:03.984Z,21.02
2016-05-28T01:16:04.129Z,20.99
2016-05-28T01:17:04.084Z,21.11
2016-05-28T01:18:03.977Z,21.11
2016-05-28T01:19:04.198Z,21.09
2016-05-28T01:20:04.748Z,21.05
2016-05-28T01:21:04.439Z,21
2016-05-28T01:22:04.191Z,21.09
2016-05-28T01:23:04.303Z,21.09
2016-05-28T01:24:04.509Z,21.09
2016-05-28T01:25:04.574Z,21.11
2016-05-28T01:26:04.623Z,21.06
2016-05-28T01:27:04.672Z,21.07
2016-05-28T01:28:04.708Z,21.03
2016-05-28T01:29:04.757Z,21.06
2016-05-28T01:30:04.806Z,21.03
2016-05-28T01:31:04.841Z,21.11
2016-05-28T01:32:04.905Z,20.99
2016-05-28T01:33:04.939Z,21.09
2016-05-28T01:34:04.974Z,21.05
2016-05-28T01:35:05.288Z,21.09
2016-05-28T01:36:05.104Z,21.09
2016-05-28T01:37:04.982Z,20.97
2016-05-28T01:38:05.280Z,21.09
2016-05-28T01:39:05.283Z,21.06
2016-05-28T01:40:05.285Z,21.06
2016-05-28T01:41:05.368Z,21.09
2016-05-28T01:42:05.573Z,21.06
2016-05-28T01:43:05.513Z,21
2016-05-28T01:44:05.641Z,21.05
2016-05-28T01:45:05.581Z,21.03
2016-05-28T01:46:05.646Z,21.11
2016-05-28T01:47:05.680Z,21.07
2016-05-28T01:48:05.761Z,21.06
2016-05-28T01:49:05.810Z,21.03
2016-05-28T01:50:05.907Z,21.11
2016-05-28T01:51:05.862Z,21.07
2016-05-28T01:52:06.037Z,21.09
2016-05-28T01:53:05.992Z,21
2016-05-28T01:54:05.933Z,21.03
2016-05-28T01:55:06.092Z,21.03
2016-05-28T01:56:06.142Z,21.07
2016-05-28T01:57:06.161Z,21.07
2016-05-28T01:58:06.241Z,21.06
2016-05-28T01:59:06.291Z,21.07
2016-05-28T02:00:06.372Z,21.03
2016-05-28T02:01:06.452Z,21.09
2016-05-28T02:02:06.470Z,21.07
2016-05-28T02:03:06.566Z,21.12
2016-05-28T02:04:06.600Z,21.02
2016-05-28T02:05:06.713Z,21.14
2016-05-28T02:06:06.700Z,21.07
2016-05-28T02:07:06.734Z,21.07
2016-05-28T02:08:06.783Z,21.06
2016-05-28T02:09:06.833Z,21.12
2016-05-28T02:10:06.867Z,21.09
2016-05-28T02:11:06.902Z,21.06
2016-05-28T02:12:07.013Z,21.05
2016-05-28T02:13:07.031Z,21.07
2016-05-28T02:14:07.065Z,21
2016-05-28T02:15:07.130Z,21.09
2016-05-28T02:16:06.946Z,21.05
2016-05-28T02:17:07.245Z,21.06
2016-05-28T02:18:07.342Z,21.14
2016-05-28T02:19:07.359Z,21.11
2016-05-28T02:20:08.160Z,21.05
2016-05-28T02:21:07.553Z,21.12
2016-05-28T02:22:07.445Z,21.12
2016-05-28T02:23:07.606Z,21.02
2016-05-28T02:24:07.514Z,21.05
2016-05-28T02:25:07.689Z,21.03
2016-05-28T02:26:07.754Z,21.03
2016-05-28T02:27:07.787Z,21.06
2016-05-28T02:28:07.837Z,21.05
2016-05-28T02:29:07.700Z,21.06
2016-05-28T02:30:07.905Z,21.11
2016-05-28T02:31:07.970Z,21.11
2016-05-28T02:32:08.036Z,21.09
2016-05-28T02:33:08.053Z,21.07
2016-05-28T02:34:07.978Z,21.09
2016-05-28T02:35:08.199Z,21.03
2016-05-28T02:36:08.218Z,21.05
2016-05-28T02:37:08.362Z,21.07
2016-05-28T02:38:08.474Z,21.05
2016-05-28T02:39:08.445Z,21.09
2016-05-28T02:40:08.526Z,21.06
2016-05-28T02:41:08.372Z,21.11
2016-05-28T02:42:08.577Z,21.07
2016-05-28T02:43:08.472Z,21.06
2016-05-28T02:44:08.693Z,21.06
2016-05-28T02:45:08.804Z,21.03
2016-05-28T02:46:08.652Z,21.02
2016-05-28T02:47:08.826Z,21.05
2016-05-28T02:48:08.860Z,21.07
2016-05-28T02:49:08.893Z,21.05
2016-05-28T02:50:08.943Z,21.07
2016-05-28T02:51:09.009Z,21
2016-05-28T02:52:09.059Z,21.07
2016-05-28T02:53:08.952Z,21.06
2016-05-28T02:54:09.016Z,21
2016-05-28T02:55:09.066Z,21.03
2016-05-28T02:56:09.287Z,21.05
2016-05-28T02:57:09.337Z,21.07
2016-05-28T02:58:09.511Z,21.06
2016-05-28T02:59:09.514Z,20.99
2016-05-28T03:00:09.611Z,21.02
2016-05-28T03:01:09.660Z,21.12
2016-05-28T03:02:09.664Z,21.12
2016-05-28T03:03:09.697Z,21.03
2016-05-28T03:04:09.731Z,20.97
2016-05-28T03:05:09.921Z,21.03
2016-05-28T03:06:09.799Z,21.09
2016-05-28T03:07:09.863Z,21.07
2016-05-28T03:08:09.898Z,21.05
2016-05-28T03:09:09.947Z,21.07
2016-05-28T03:10:09.997Z,21.12
2016-05-28T03:11:10.063Z,21.12
2016-05-28T03:12:09.956Z,21.05
2016-05-28T03:13:10.161Z,21.06
2016-05-28T03:14:10.055Z,21.09
2016-05-28T03:15:10.260Z,21.05
2016-05-28T03:16:10.341Z,21.07
2016-05-28T03:17:10.359Z,21.09
2016-05-28T03:18:10.269Z,21
2016-05-28T03:19:10.490Z,21.05
2016-05-28T03:20:10.524Z,21.06
2016-05-28T03:21:10.589Z,21.06
2016-05-28T03:22:10.639Z,21.07
2016-05-28T03:23:10.688Z,21.05
2016-05-28T03:24:10.723Z,21.05
2016-05-28T03:25:10.631Z,21.09
2016-05-28T03:26:10.821Z,21.07
2016-05-28T03:27:10.870Z,21.06
2016-05-28T03:28:10.936Z,21.05
2016-05-28T03:29:10.986Z,21.06
2016-05-28T03:30:11.036Z,21.05
2016-05-28T03:31:11.100Z,21.07
2016-05-28T03:32:11.150Z,21.07
2016-05-28T03:33:11.200Z,21.05
2016-05-28T03:34:11.264Z,21.03
2016-05-28T03:35:11.736Z,21.07
2016-05-28T03:36:11.223Z,21.07
2016-05-28T03:37:11.413Z,21.03
2016-05-28T03:38:11.322Z,21.05
2016-05-28T03:39:11.512Z,21.07
2016-05-28T03:40:11.577Z,21.05
2016-05-28T03:41:11.612Z,21.02
2016-05-28T03:42:11.521Z,21.05
2016-05-28T03:43:11.726Z,21.05
2016-05-28T03:44:11.777Z,21.02
2016-05-28T03:45:11.669Z,21.03
2016-05-28T03:46:11.891Z,20.99
2016-05-28T03:47:11.940Z,21.07
2016-05-28T03:48:11.974Z,21.05
2016-05-28T03:49:12.024Z,21.06
2016-05-28T03:50:11.808Z,20.96
2016-05-28T03:51:11.982Z,21.05
2016-05-28T03:52:12.032Z,21.05
2016-05-28T03:53:12.238Z,20.96
2016-05-28T03:54:12.288Z,21.03
2016-05-28T03:55:12.353Z,21.06
2016-05-28T03:56:12.401Z,21
2016-05-28T03:57:12.451Z,21.06
2016-05-28T03:58:12.517Z,21.05
2016-05-28T03:59:12.581Z,20.97
2016-05-28T04:00:12.631Z,21.06
2016-05-28T04:01:12.665Z,20.95
2016-05-28T04:02:12.731Z,21.05
2016-05-28T04:03:12.765Z,21.05
2016-05-28T04:04:12.814Z,20.96
2016-05-28T04:05:12.880Z,21
2016-05-28T04:06:12.929Z,20.92
2016-05-28T04:07:12.978Z,21
2016-05-28T04:08:13.027Z,21.05
2016-05-28T04:09:13.078Z,21.05
2016-05-28T04:10:13.127Z,21.05
2016-05-28T04:11:13.021Z,21
2016-05-28T04:12:13.242Z,21.03
2016-05-28T04:13:13.291Z,21.03
2016-05-28T04:14:13.341Z,21.03
2016-05-28T04:15:13.407Z,21.05
2016-05-28T04:16:13.472Z,21.02
2016-05-28T04:17:13.349Z,21.05
2016-05-28T04:18:13.555Z,21.03
2016-05-28T04:19:13.605Z,21.09
2016-05-28T04:20:13.670Z,21.05
2016-05-28T04:21:13.704Z,21.05
2016-05-28T04:22:13.753Z,21.02
2016-05-28T04:23:13.803Z,21.03
2016-05-28T04:24:13.852Z,21
2016-05-28T04:25:13.918Z,21
2016-05-28T04:26:13.967Z,21.11
2016-05-28T04:27:13.860Z,20.97
2016-05-28T04:28:13.925Z,21.05
2016-05-28T04:29:13.975Z,21.02
2016-05-28T04:30:14.181Z,21.03
2016-05-28T04:31:14.230Z,21.03
2016-05-28T04:32:14.295Z,21.03
2016-05-28T04:33:14.330Z,20.95
2016-05-28T04:34:14.222Z,21.03
2016-05-28T04:35:14.397Z,21.06
2016-05-28T04:36:14.494Z,21.03
2016-05-28T04:37:14.387Z,21.09
2016-05-28T04:38:14.609Z,21.05
2016-05-28T04:39:14.502Z,21.02
2016-05-28T04:40:14.692Z,20.95
2016-05-28T04:41:14.602Z,21
2016-05-28T04:42:14.822Z,20.99
2016-05-28T04:43:14.857Z,21.05
2016-05-28T04:44:14.906Z,21.05
2016-05-28T04:45:14.956Z,21
2016-05-28T04:46:15.005Z,21.02
2016-05-28T04:47:14.899Z,21.05
2016-05-28T04:48:15.121Z,21
2016-05-28T04:49:15.013Z,21.03
2016-05-28T04:50:15.360Z,20.99
2016-05-28T04:51:15.269Z,21
2016-05-28T04:52:15.334Z,21.02
2016-05-28T04:53:15.384Z,20.99
2016-05-28T04:54:15.449Z,21
2016-05-28T04:55:15.545Z,21.02
2016-05-28T04:56:15.532Z,20.99
2016-05-28T04:57:15.425Z,21.05
2016-05-28T04:58:15.631Z,21.06
2016-05-28T04:59:15.696Z,20.99
2016-05-28T05:00:15.746Z,21.03
2016-05-28T05:01:15.795Z,20.99
2016-05-28T05:02:15.861Z,21.03
2016-05-28T05:03:15.911Z,21.02
2016-05-28T05:04:15.975Z,20.96
2016-05-28T05:05:16.619Z,20.99
2016-05-28T05:06:16.058Z,21.02
2016-05-28T05:07:16.108Z,21.02
2016-05-28T05:08:16.199Z,20.97
2016-05-28T05:09:16.273Z,20.95
2016-05-28T05:10:16.347Z,21.03
2016-05-28T05:11:16.390Z,21.05
2016-05-28T05:12:16.495Z,21.03
2016-05-28T05:13:16.548Z,21.02
2016-05-28T05:14:16.607Z,20.96
2016-05-28T05:15:16.665Z,21.06
2016-05-28T05:16:16.738Z,20.99
2016-05-28T05:17:16.875Z,21.06
2016-05-28T05:18:16.870Z,21.05
2016-05-28T05:19:16.750Z,21.09
2016-05-28T05:20:16.661Z,21.09
2016-05-28T05:21:17.027Z,21.03
2016-05-28T05:22:17.080Z,20.97
2016-05-28T05:23:17.115Z,21.09
2016-05-28T05:24:17.198Z,21.14
2016-05-28T05:25:17.076Z,21.06
2016-05-28T05:26:17.299Z,21.12
2016-05-28T05:27:17.350Z,21.17
2016-05-28T05:28:17.244Z,21.14
2016-05-28T05:29:17.450Z,21.14
2016-05-28T05:30:17.515Z,21.09
2016-05-28T05:31:17.566Z,21.17
2016-05-28T05:32:17.600Z,21.05
2016-05-28T05:33:17.666Z,21.06
2016-05-28T05:34:17.730Z,21.12
2016-05-28T05:35:18.342Z,21.14
2016-05-28T05:36:17.658Z,21.05
2016-05-28T05:37:17.863Z,21.05
2016-05-28T05:38:17.773Z,21.06
2016-05-28T05:39:17.978Z,21.06
2016-05-28T05:40:18.028Z,21.07
2016-05-28T05:41:18.078Z,21.07
2016-05-28T05:42:18.143Z,21.12
2016-05-28T05:43:18.192Z,21.06
2016-05-28T05:44:18.086Z,21.03
2016-05-28T05:45:18.135Z,21.12
2016-05-28T05:46:18.342Z,20.99
2016-05-28T05:47:18.390Z,21.02
2016-05-28T05:48:18.439Z,21.06
2016-05-28T05:49:18.350Z,21.11
2016-05-28T05:50:18.570Z,21.05
2016-05-28T05:51:18.589Z,21.06
2016-05-28T05:52:18.654Z,21.07
2016-05-28T05:53:18.719Z,21.02
2016-05-28T05:54:18.441Z,21.06
2016-05-28T05:55:18.802Z,21.15
2016-05-28T05:56:18.900Z,21.14
2016-05-28T05:57:18.917Z,20.99
2016-05-28T05:58:18.967Z,21.06
2016-05-28T05:59:19.033Z,21.06
2016-05-28T06:00:18.925Z,21.09
2016-05-28T06:01:19.132Z,21.07
2016-05-28T06:02:19.196Z,21.06
2016-05-28T06:03:19.231Z,21.03
2016-05-28T06:04:19.280Z,21.03
2016-05-28T06:05:19.236Z,21.02
2016-05-28T06:06:19.379Z,21.06
2016-05-28T06:07:19.443Z,21.09
2016-05-28T06:08:19.493Z,21.07
2016-05-28T06:09:19.544Z,21.03
2016-05-28T06:10:19.577Z,21.12
2016-05-28T06:11:19.642Z,21.05
2016-05-28T06:12:19.707Z,21.07
2016-05-28T06:13:19.757Z,21.05
2016-05-28T06:14:19.807Z,21.05
2016-05-28T06:15:19.840Z,21.14
2016-05-28T06:16:19.906Z,21.14
2016-05-28T06:17:19.956Z,21.09
2016-05-28T06:18:20.006Z,21.2
2016-05-28T06:19:20.070Z,21.11
2016-05-28T06:20:20.136Z,21.09
2016-05-28T06:21:20.170Z,21.12
2016-05-28T06:22:20.078Z,21.14
2016-05-28T06:23:20.284Z,21.09
2016-05-28T06:24:20.334Z,21.15
2016-05-28T06:25:20.383Z,21.12
2016-05-28T06:26:20.433Z,21.11
2016-05-28T06:27:20.483Z,21.15
2016-05-28T06:28:20.532Z,21.11
2016-05-28T06:29:20.597Z,21.07
2016-05-28T06:30:20.647Z,21.15
2016-05-28T06:31:20.680Z,21.07
2016-05-28T06:32:20.590Z,21.06
2016-05-28T06:33:20.639Z,21.12
2016-05-28T06:34:20.846Z,21.11
2016-05-28T06:35:20.926Z,21.07
2016-05-28T06:36:20.960Z,21.11
2016-05-28T06:37:21.009Z,21.07
2016-05-28T06:38:21.074Z,21.17
2016-05-28T06:39:21.109Z,21.15
2016-05-28T06:40:21.158Z,21.06
2016-05-28T06:41:21.207Z,21.11
2016-05-28T06:42:21.257Z,21.15
2016-05-28T06:43:21.323Z,21.12
2016-05-28T06:44:21.372Z,21.09
2016-05-28T06:45:21.421Z,21.11
2016-05-28T06:46:21.486Z,21.15
2016-05-28T06:47:21.568Z,21.09
2016-05-28T06:48:21.586Z,21.09
2016-05-28T06:49:21.479Z,21.09
2016-05-28T06:50:21.872Z,21.06
2016-05-28T06:51:21.766Z,21.11
2016-05-28T06:52:21.784Z,21.06
2016-05-28T06:53:21.849Z,21.07
2016-05-28T06:54:21.743Z,21.07
2016-05-28T06:55:21.964Z,21.05
2016-05-28T06:56:21.997Z,21.12
2016-05-28T06:57:22.064Z,21.12
2016-05-28T06:58:22.098Z,21.11
2016-05-28T06:59:22.006Z,21.11
2016-05-28T07:00:22.211Z,21.05
2016-05-28T07:01:22.261Z,21.12
2016-05-28T07:02:22.327Z,21.11
2016-05-28T07:03:22.407Z,21.05
2016-05-28T07:04:22.269Z,21.11
2016-05-28T07:05:22.397Z,21.15
2016-05-28T07:06:22.524Z,21.12
2016-05-28T07:07:22.574Z,21.21
2016-05-28T07:08:22.640Z,21.09
2016-05-28T07:09:22.690Z,21.22
2016-05-28T07:10:22.582Z,21.17
2016-05-28T07:11:22.788Z,21.21
2016-05-28T07:12:22.712Z,21.22
2016-05-28T07:13:22.887Z,21.22
2016-05-28T07:14:22.968Z,21.21
2016-05-28T07:15:23.001Z,21.25
2016-05-28T07:16:23.052Z,21.2
2016-05-28T07:17:23.101Z,21.18
2016-05-28T07:18:23.151Z,21.15
2016-05-28T07:19:23.200Z,21.17
2016-05-28T07:20:24.078Z,21.25
2016-05-28T07:21:23.299Z,21.21
2016-05-28T07:22:23.209Z,21.2
2016-05-28T07:23:23.414Z,21.21
2016-05-28T07:24:23.480Z,21.22
2016-05-28T07:25:23.358Z,21.22
2016-05-28T07:26:23.578Z,21.17
2016-05-28T07:27:23.644Z,21.2
2016-05-28T07:28:23.677Z,21.21
2016-05-28T07:29:23.744Z,21.22
2016-05-28T07:30:23.792Z,21.22
2016-05-28T07:31:23.841Z,21.22
2016-05-28T07:32:23.892Z,21.22
2016-05-28T07:33:23.942Z,21.24
2016-05-28T07:34:24.538Z,21.22
2016-05-28T07:35:24.149Z,21.15
2016-05-28T07:36:24.105Z,21.18
2016-05-28T07:37:23.999Z,21.22
2016-05-28T07:38:24.204Z,21.21
2016-05-28T07:39:24.254Z,21.2
2016-05-28T07:40:24.319Z,21.18
2016-05-28T07:41:24.369Z,21.17
2016-05-28T07:42:24.418Z,21.22
2016-05-28T07:43:24.468Z,21.21
2016-05-28T07:44:24.534Z,21.24
2016-05-28T07:45:24.567Z,21.3
2016-05-28T07:46:24.632Z,21.27
2016-05-28T07:47:24.681Z,21.21
2016-05-28T07:48:24.731Z,21.25
2016-05-28T07:49:24.797Z,21.27
2016-05-28T07:50:25.284Z,21.29
2016-05-28T07:51:24.880Z,21.32
2016-05-28T07:52:24.773Z,21.2
2016-05-28T07:53:24.995Z,21.32
2016-05-28T07:54:25.044Z,21.29
2016-05-28T07:55:25.094Z,21.32
2016-05-28T07:56:25.144Z,21.35
2016-05-28T07:57:25.037Z,21.3
2016-05-28T07:58:25.243Z,21.29
2016-05-28T07:59:25.292Z,21.33
2016-05-28T08:00:25.357Z,21.25
2016-05-28T08:01:25.408Z,21.21
2016-05-28T08:02:25.472Z,21.3
2016-05-28T08:03:25.522Z,21.29
2016-05-28T08:04:25.399Z,21.32
2016-05-28T08:05:26.730Z,21.32
2016-05-28T08:06:25.671Z,21.22
2016-05-28T08:07:25.735Z,21.29
2016-05-28T08:08:25.785Z,21.32
2016-05-28T08:09:25.819Z,21.27
2016-05-28T08:10:25.729Z,21.33
2016-05-28T08:11:26.012Z,21.33
2016-05-28T08:12:25.984Z,21.35
2016-05-28T08:13:26.049Z,21.3
2016-05-28T08:14:25.942Z,21.3
2016-05-28T08:15:26.132Z,21.33
2016-05-28T08:16:26.198Z,21.39
2016-05-28T08:17:26.262Z,21.4
2016-05-28T08:18:26.281Z,21.33
2016-05-28T08:19:26.362Z,21.39
2016-05-28T08:20:26.567Z,21.39
2016-05-28T08:21:26.462Z,21.37
2016-05-28T08:22:26.511Z,21.43
2016-05-28T08:23:27.997Z,21.45
2016-05-28T08:24:27.547Z,21.42
2016-05-28T08:25:26.659Z,21.37
2016-05-28T08:26:26.552Z,21.4
2016-05-28T08:27:26.775Z,21.45
2016-05-28T08:28:26.823Z,21.48
2016-05-28T08:29:26.873Z,21.42
2016-05-28T08:30:26.954Z,21.4
2016-05-28T08:31:27.003Z,21.48
2016-05-28T08:32:26.881Z,21.37
2016-05-28T08:33:28.461Z,21.4
2016-05-28T08:34:27.011Z,21.46
2016-05-28T08:35:27.217Z,21.42
2016-05-28T08:36:27.235Z,21.45
2016-05-28T08:37:27.301Z,21.42
2016-05-28T08:38:28.413Z,21.42
2016-05-28T08:39:27.385Z,21.45
2016-05-28T08:40:27.466Z,21.48
2016-05-28T08:41:27.515Z,21.51
2016-05-28T08:42:27.565Z,21.51
2016-05-28T08:43:30.051Z,21.48
2016-05-28T08:44:27.679Z,21.51
2016-05-28T08:45:27.713Z,21.46
2016-05-28T08:46:27.794Z,21.48
2016-05-28T08:47:27.828Z,21.5
2016-05-28T08:48:28.471Z,21.46
2016-05-28T08:49:28.349Z,21.5
2016-05-28T08:50:28.383Z,21.55
2016-05-28T08:51:28.026Z,21.54
2016-05-28T08:52:28.106Z,21.48
2016-05-28T08:53:27.985Z,21.54
2016-05-28T08:54:28.034Z,21.6
2016-05-28T08:55:28.256Z,21.55
2016-05-28T08:56:28.290Z,21.58
2016-05-28T08:57:28.339Z,21.58
2016-05-28T08:58:28.263Z,21.52
2016-05-28T08:59:28.453Z,21.55
2016-05-28T09:00:28.503Z,21.58
2016-05-28T09:01:28.569Z,21.57
2016-05-28T09:02:28.602Z,21.54
2016-05-28T09:03:28.668Z,21.55
2016-05-28T09:04:29.624Z,21.52
2016-05-28T09:05:28.767Z,21.58
2016-05-28T09:06:28.816Z,21.57
2016-05-28T09:07:28.897Z,21.57
2016-05-28T09:08:28.930Z,21.58
2016-05-28T09:09:28.980Z,21.61
2016-05-28T09:10:29.046Z,21.6
2016-05-28T09:11:28.783Z,21.54
2016-05-28T09:12:29.145Z,21.55
2016-05-28T09:13:29.179Z,21.55
2016-05-28T09:14:29.229Z,21.55
2016-05-28T09:15:29.310Z,21.6
2016-05-28T09:16:29.187Z,21.62
2016-05-28T09:17:29.393Z,21.57
2016-05-28T09:18:29.474Z,21.6
2016-05-28T09:19:29.648Z,21.61
2016-05-28T09:20:29.963Z,21.66
2016-05-28T09:21:29.606Z,21.57
2016-05-28T09:22:29.516Z,21.58
2016-05-28T09:23:29.721Z,21.58
2016-05-28T09:24:29.787Z,21.58
2016-05-28T09:25:29.837Z,21.62
2016-05-28T09:26:29.887Z,21.66
2016-05-28T09:27:29.920Z,21.64
2016-05-28T09:28:30.000Z,21.67
2016-05-28T09:29:30.034Z,21.64
2016-05-28T09:30:30.084Z,21.6
2016-05-28T09:31:30.134Z,21.66
2016-05-28T09:32:30.200Z,21.73
2016-05-28T09:33:30.091Z,21.77
2016-05-28T09:34:30.313Z,21.69
2016-05-28T09:35:30.785Z,21.7
2016-05-28T09:36:30.428Z,21.69
2016-05-28T09:37:30.446Z,21.72
2016-05-28T09:38:30.511Z,21.72
2016-05-28T09:39:30.546Z,21.72
2016-05-28T09:40:30.626Z,21.66
2016-05-28T09:41:32.130Z,21.69
2016-05-28T09:42:30.726Z,21.77
2016-05-28T09:43:30.650Z,21.67
2016-05-28T09:44:30.840Z,21.82
2016-05-28T09:45:30.874Z,21.76
2016-05-28T09:46:30.940Z,21.8
2016-05-28T09:47:31.005Z,21.69
2016-05-28T09:48:31.071Z,21.7
2016-05-28T09:49:31.245Z,21.83
2016-05-28T09:50:31.168Z,21.75
2016-05-28T09:51:31.187Z,21.76
2016-05-28T09:52:31.253Z,21.79
2016-05-28T09:53:31.286Z,21.83
2016-05-28T09:54:31.351Z,21.79
2016-05-28T09:55:31.401Z,21.73
2016-05-28T09:56:31.482Z,21.82
2016-05-28T09:57:31.219Z,21.77
2016-05-28T09:58:31.581Z,21.82
2016-05-28T09:59:31.631Z,21.79
2016-05-28T10:00:31.540Z,21.79
2016-05-28T10:01:31.730Z,21.76
2016-05-28T10:02:31.794Z,21.83
2016-05-28T10:03:31.813Z,21.82
2016-05-28T10:04:32.707Z,21.77
2016-05-28T10:05:31.772Z,21.88
2016-05-28T10:06:31.836Z,21.83
2016-05-28T10:07:33.028Z,21.76
2016-05-28T10:08:32.092Z,21.82
2016-05-28T10:09:32.174Z,21.83
2016-05-28T10:10:32.208Z,21.79
2016-05-28T10:11:32.258Z,21.76
2016-05-28T10:12:32.291Z,21.8
2016-05-28T10:13:32.355Z,21.79
2016-05-28T10:14:32.405Z,21.77
2016-05-28T10:15:32.299Z,21.77
2016-05-28T10:16:32.521Z,21.79
2016-05-28T10:17:33.696Z,21.8
2016-05-28T10:18:32.604Z,21.77
2016-05-28T10:19:33.076Z,21.8
2016-05-28T10:20:32.937Z,21.76
2016-05-28T10:21:32.784Z,21.82
2016-05-28T10:22:35.287Z,21.77
2016-05-28T10:23:32.727Z,21.79
2016-05-28T10:24:32.932Z,21.8
2016-05-28T10:25:32.997Z,21.82
2016-05-28T10:26:33.048Z,21.82
2016-05-28T10:27:34.097Z,21.82
2016-05-28T10:28:33.162Z,21.77
2016-05-28T10:29:33.195Z,21.82
2016-05-28T10:30:33.261Z,21.75
2016-05-28T10:31:33.326Z,21.85
2016-05-28T10:32:33.220Z,21.88
2016-05-28T10:33:33.456Z,21.77
2016-05-28T10:34:33.772Z,21.76
2016-05-28T10:35:33.525Z,21.83
2016-05-28T10:36:33.558Z,21.82
2016-05-28T10:37:33.467Z,21.75
2016-05-28T10:38:33.516Z,21.88
2016-05-28T10:39:33.722Z,21.79
2016-05-28T10:40:33.647Z,21.73
2016-05-28T10:41:33.822Z,21.8
2016-05-28T10:42:33.902Z,21.76
2016-05-28T10:43:33.936Z,21.77
2016-05-28T10:44:34.002Z,21.85
2016-05-28T10:45:34.035Z,21.79
2016-05-28T10:46:34.101Z,21.82
2016-05-28T10:47:34.166Z,21.77
2016-05-28T10:48:34.215Z,21.76
2016-05-28T10:49:34.109Z,21.8
2016-05-28T10:50:36.518Z,21.83
2016-05-28T10:51:34.365Z,21.79
2016-05-28T10:52:34.398Z,21.75
2016-05-28T10:53:34.307Z,21.77
2016-05-28T10:54:34.513Z,21.77
2016-05-28T10:55:35.204Z,21.77
2016-05-28T10:56:34.628Z,21.83
2016-05-28T10:57:34.678Z,21.77
2016-05-28T10:58:34.571Z,21.82
2016-05-28T10:59:34.792Z,21.77
2016-05-28T11:00:38.467Z,21.88
2016-05-28T11:01:34.891Z,21.8
2016-05-28T11:02:34.957Z,21.82
2016-05-28T11:03:35.006Z,21.77
2016-05-28T11:04:35.056Z,21.77
2016-05-28T11:05:40.245Z,21.79
2016-05-28T11:06:35.170Z,21.88
2016-05-28T11:07:35.205Z,21.8
2016-05-28T11:08:35.097Z,21.8
2016-05-28T11:09:35.335Z,21.76
2016-05-28T11:10:35.369Z,21.82
2016-05-28T11:11:35.418Z,21.82
2016-05-28T11:12:35.483Z,21.82
2016-05-28T11:13:35.517Z,21.8
2016-05-28T11:14:35.567Z,21.83
2016-05-28T11:15:35.632Z,21.79
2016-05-28T11:16:35.682Z,21.85
2016-05-28T11:17:35.747Z,21.85
2016-05-28T11:18:35.797Z,21.85
2016-05-28T11:19:35.862Z,21.88
2016-05-28T11:20:36.130Z,21.83
2016-05-28T11:21:35.946Z,21.83
2016-05-28T11:22:35.996Z,21.82
2016-05-28T11:23:36.059Z,21.79
2016-05-28T11:24:36.109Z,21.88
2016-05-28T11:25:36.159Z,21.79
2016-05-28T11:26:36.084Z,21.82
2016-05-28T11:27:39.211Z,21.91
2016-05-28T11:28:36.339Z,21.82
2016-05-28T11:29:36.217Z,21.83
2016-05-28T11:30:36.438Z,21.79
2016-05-28T11:31:36.487Z,21.91
2016-05-28T11:32:38.459Z,21.85
2016-05-28T11:33:36.587Z,21.88
2016-05-28T11:34:36.496Z,21.92
2016-05-28T11:35:36.889Z,21.93
2016-05-28T11:36:36.750Z,21.92
2016-05-28T11:37:41.206Z,21.91
2016-05-28T11:38:36.834Z,21.88
2016-05-28T11:39:36.916Z,21.83
2016-05-28T11:40:36.808Z,21.88
2016-05-28T11:41:37.015Z,21.89
2016-05-28T11:42:38.377Z,21.92
2016-05-28T11:43:36.957Z,21.89
2016-05-28T11:44:37.179Z,21.89
2016-05-28T11:45:37.228Z,21.89
2016-05-28T11:46:37.263Z,21.88
2016-05-28T11:47:39.828Z,21.88
2016-05-28T11:48:37.408Z,21.95
2016-05-28T11:49:38.660Z,21.92
2016-05-28T11:50:37.961Z,21.93
2016-05-28T11:51:37.541Z,21.83
2016-05-28T11:52:42.544Z,21.88
2016-05-28T11:53:37.656Z,21.92
2016-05-28T11:54:37.706Z,21.85
2016-05-28T11:55:37.599Z,21.88
2016-05-28T11:56:37.790Z,21.93
2016-05-28T11:57:40.323Z,21.92
2016-05-28T11:58:37.763Z,21.95
2016-05-28T11:59:37.812Z,21.96
2016-05-28T12:00:38.019Z,21.91
2016-05-28T12:01:37.990Z,21.88
2016-05-28T12:02:41.149Z,21.98
2016-05-28T12:03:38.167Z,21.91
2016-05-28T12:04:38.843Z,21.93
2016-05-28T12:05:39.282Z,21.95
2016-05-28T12:06:38.331Z,22.02
2016-05-28T12:07:42.945Z,22.06
2016-05-28T12:08:38.446Z,22.02
2016-05-28T12:09:38.512Z,21.98
2016-05-28T12:10:38.546Z,22.04
2016-05-28T12:11:38.595Z,22.02
2016-05-28T12:12:39.160Z,21.99
2016-05-28T12:13:38.711Z,21.95
2016-05-28T12:14:38.760Z,22.04
2016-05-28T12:15:38.825Z,22.02
2016-05-28T12:16:38.858Z,22.02
2016-05-28T12:17:42.643Z,21.96
2016-05-28T12:18:38.974Z,22.02
2016-05-28T12:19:39.258Z,22
2016-05-28T12:20:40.322Z,21.93
2016-05-28T12:21:39.122Z,21.99
2016-05-28T12:22:42.593Z,22.02
2016-05-28T12:23:39.221Z,21.95
2016-05-28T12:24:39.318Z,22.02
2016-05-28T12:25:39.352Z,22.04
2016-05-28T12:26:39.385Z,22.04
2016-05-28T12:27:42.404Z,22.07
2016-05-28T12:28:39.500Z,22.06
2016-05-28T12:29:39.551Z,22.07
2016-05-28T12:30:39.615Z,22.08
2016-05-28T12:31:39.664Z,22.1
2016-05-28T12:32:42.495Z,22.1
2016-05-28T12:33:39.795Z,22.04
2016-05-28T12:34:41.017Z,22.1
2016-05-28T12:35:39.894Z,22.1
2016-05-28T12:36:39.913Z,22.15
2016-05-28T12:37:43.759Z,22.06
2016-05-28T12:38:40.043Z,22.13
2016-05-28T12:39:40.093Z,22.08
2016-05-28T12:40:40.158Z,22.14
2016-05-28T12:41:40.176Z,22.18
2016-05-28T12:42:44.585Z,22.06
2016-05-28T12:43:40.134Z,22.14
2016-05-28T12:44:40.356Z,22.11
2016-05-28T12:45:40.405Z,21.98
2016-05-28T12:46:40.440Z,22.04
2016-05-28T12:47:40.614Z,22.15
2016-05-28T12:48:40.413Z,22.04
2016-05-28T12:49:41.057Z,22.11
2016-05-28T12:50:40.669Z,22.2
2016-05-28T12:51:40.718Z,22.04
2016-05-28T12:52:44.362Z,22.11
2016-05-28T12:53:40.833Z,22.13
2016-05-28T12:54:40.726Z,22.15
2016-05-28T12:55:40.932Z,22.1